| time (UTC) | temp F | wind direction | speed MPH | gust MPH | rain 1hr in | rain 24hr in | rain mn in | humidity % | barometer mb |
| 20260509200037 | 76 | 131 | 7.0 | 12.0 | 0.00 | 0.04 | 0.04 | 55 | 1009.6 |
| 20260509194539 | 75 | 151 | 7.0 | 14.0 | 0.00 | 0.04 | 0.04 | 57 | 1009.7 |
| 20260509193038 | 75 | 233 | 5.0 | 10.0 | 0.00 | 0.04 | 0.04 | 62 | 1009.6 |
| 20260509191529 | 74 | 163 | 5.0 | 10.0 | 0.00 | 0.04 | 0.04 | 61 | 1009.8 |
| 20260509190028 | 74 | 149 | 6.0 | 13.0 | 0.00 | 0.04 | 0.04 | 66 | 1009.8 |
| 20260509184535 | 73 | 201 | 5.0 | 12.0 | 0.00 | 0.04 | 0.04 | 65 | 1009.9 |
| 20260509183032 | 73 | 162 | 8.0 | 13.0 | 0.00 | 0.04 | 0.04 | 64 | 1010.0 |
| 20260509181532 | 72 | 138 | 4.0 | 9.0 | 0.00 | 0.04 | 0.04 | 54 | 1010.0 |
| 20260509180029 | 72 | 204 | 5.0 | 10.0 | 0.00 | 0.04 | 0.04 | 56 | 1010.1 |
| 20260509174528 | 71 | 188 | 3.0 | 10.0 | 0.00 | 0.04 | 0.04 | 56 | 1010.2 |
| 20260509173030 | 71 | 173 | 4.0 | 10.0 | 0.00 | 0.04 | 0.04 | 58 | 1010.1 |
| 20260509171536 | 71 | 133 | 4.0 | 12.0 | 0.00 | 0.04 | 0.04 | 69 | 1010.3 |
| 20260509170030 | 71 | 182 | 3.0 | 12.0 | 0.00 | 0.04 | 0.04 | 70 | 1010.5 |
| 20260509164529 | 70 | 180 | 5.0 | 11.0 | 0.00 | 0.04 | 0.04 | 71 | 1010.6 |
| 20260509163030 | 68 | 0 | 1.0 | 11.0 | 0.00 | 0.04 | 0.04 | 74 | 1010.6 |
| 20260509161532 | 68 | 178 | 4.0 | 8.0 | 0.00 | 0.04 | 0.04 | 74 | 1010.4 |
| 20260509160030 | 67 | 257 | 3.0 | 9.0 | 0.00 | 0.04 | 0.04 | 63 | 1010.4 |
| 20260509154534 | 67 | 171 | 3.0 | 7.0 | 0.00 | 0.04 | 0.04 | 77 | 1010.3 |
| 20260509153033 | 67 | 207 | 5.0 | 10.0 | 0.00 | 0.04 | 0.04 | 64 | 1010.2 |
| 20260509151533 | 65 | 202 | 4.0 | 9.0 | 0.00 | 0.04 | 0.04 | 79 | 1010.0 |
| 20260509150028 | 66 | 159 | 5.0 | 9.0 | 0.00 | 0.04 | 0.04 | 65 | 1009.9 |
| 20260509144530 | 65 | 169 | 4.0 | 8.0 | 0.00 | 0.04 | 0.04 | 68 | 1009.7 |
| 20260509143032 | 65 | 135 | 2.0 | 7.0 | 0.00 | 0.04 | 0.04 | 70 | 1009.7 |
| 20260509141532 | 64 | 111 | 1.0 | 7.0 | 0.00 | 0.04 | 0.04 | 84 | 1009.5 |
| 20260509140049 | 64 | 102 | 1.0 | 4.0 | 0.00 | 0.04 | 0.04 | 73 | 1009.6 |
| 20260509134530 | 63 | 93 | 3.0 | 7.0 | 0.00 | 0.04 | 0.04 | 87 | 1009.5 |
| 20260509133030 | 63 | 48 | 0.0 | 4.0 | 0.00 | 0.04 | 0.04 | 79 | 1009.4 |
| 20260509131540 | 61 | 81 | 2.0 | 3.0 | 0.00 | 0.04 | 0.04 | 80 | 1009.4 |
| 20260509130034 | 61 | 137 | 1.0 | 4.0 | 0.00 | 0.04 | 0.04 | 82 | 1009.5 |
| 20260509124535 | 60 | 200 | 1.0 | 3.0 | 0.00 | 0.04 | 0.04 | 82 | 1009.4 |
| 20260509123029 | 61 | 212 | 0.0 | 2.0 | 0.00 | 0.04 | 0.04 | 84 | 1009.3 |
| 20260509121546 | 60 | 0 | 0.0 | 1.0 | 0.00 | 0.04 | 0.04 | 85 | 1009.2 |
| 20260509120034 | 58 | 17 | 0.0 | 3.0 | 0.00 | 0.04 | 0.04 | 86 | 1008.9 |
| 20260509114533 | 57 | 238 | 2.0 | 9.0 | 0.00 | 0.04 | 0.04 | 86 | 1008.7 |
| 20260509113030 | 56 | 105 | 4.0 | 7.0 | 0.00 | 0.04 | 0.04 | 85 | 1008.5 |
| 20260509111530 | 56 | 221 | 0.0 | 2.0 | 0.00 | 0.04 | 0.04 | 85 | 1008.7 |
| 20260509110031 | 56 | 192 | 1.0 | 2.0 | 0.00 | 0.04 | 0.04 | 84 | 1008.6 |
| 20260509104528 | 56 | 0 | 0.0 | 2.0 | 0.00 | 0.04 | 0.04 | 84 | 1008.1 |
| 20260509103028 | 56 | 187 | 0.0 | 1.0 | 0.00 | 0.04 | 0.04 | 83 | 1008.0 |
| 20260509101531 | 57 | 0 | 0.0 | 1.0 | 0.01 | 0.04 | 0.04 | 83 | 1007.5 |
| 20260509100032 | 57 | 62 | 0.0 | 2.0 | 0.02 | 0.04 | 0.04 | 82 | 1007.4 |
| 20260509094529 | 57 | 89 | 1.0 | 2.0 | 0.03 | 0.04 | 0.04 | 82 | 1007.9 |
| 20260509093030 | 57 | 10 | 1.0 | 3.0 | 0.03 | 0.03 | 0.03 | 82 | 1008.1 |
| 20260509091528 | 58 | 257 | 2.0 | 7.0 | 0.03 | 0.03 | 0.03 | 81 | 1008.3 |
| 20260509090028 | 58 | 360 | 1.0 | 5.0 | 0.02 | 0.02 | 0.02 | 79 | 1007.6 |
| 20260509084537 | 58 | 0 | 0.0 | 5.0 | 0.01 | 0.01 | 0.01 | 78 | 1007.6 |
| 20260509083043 | 59 | 17 | 2.0 | 6.0 | 0.00 | 0.00 | 0.00 | 77 | 1007.9 |
| 20260509081530 | 59 | 316 | 6.0 | 11.0 | 0.00 | 0.00 | 0.00 | 76 | 1008.0 |
| 20260509080032 | 59 | 334 | 4.0 | 9.0 | 0.00 | 0.00 | 0.00 | 76 | 1008.5 |
| 20260509074532 | 59 | 336 | 5.0 | 15.0 | 0.00 | 0.00 | 0.00 | 77 | 1008.8 |
| 20260509073030 | 60 | 280 | 3.0 | 9.0 | 0.00 | 0.00 | 0.00 | 76 | 1008.9 |
| 20260509071531 | 60 | 272 | 7.0 | 12.0 | 0.00 | 0.00 | 0.00 | 75 | 1008.7 |
| 20260509070029 | 61 | 316 | 7.0 | 12.0 | 0.00 | 0.00 | 0.00 | 80 | 1008.6 |
| 20260509064532 | 62 | 196 | 2.0 | 4.0 | 0.00 | 0.00 | 0.00 | 59 | 1008.6 |
| 20260509063034 | 61 | 255 | 3.0 | 6.0 | 0.00 | 0.00 | 0.00 | 72 | 1008.7 |
| 20260509061539 | 61 | 180 | 2.0 | 5.0 | 0.00 | 0.00 | 0.00 | 62 | 1008.5 |
| 20260509060028 | 61 | 131 | 3.0 | 5.0 | 0.00 | 0.00 | 0.00 | 60 | 1008.5 |
| 20260509054529 | 61 | 174 | 2.0 | 4.0 | 0.00 | 0.00 | 0.00 | 60 | 1008.3 |
| 20260509053039 | 61 | 185 | 2.0 | 4.0 | 0.00 | 0.00 | 0.00 | 59 | 1008.4 |
| 20260509051530 | 61 | 153 | 2.0 | 5.0 | 0.00 | 0.00 | 0.00 | 59 | 1008.5 |
| 20260509050031 | 61 | 188 | 3.0 | 4.0 | 0.00 | 0.00 | 0.00 | 71 | 1008.5 |
| 20260509044530 | 62 | 160 | 3.0 | 5.0 | 0.00 | 0.00 | 0.00 | 72 | 1008.5 |
| 20260509043029 | 62 | 189 | 4.0 | 7.0 | 0.00 | 0.00 | 0.00 | 59 | 1008.6 |
| 20260509041539 | 62 | 175 | 4.0 | 8.0 | 0.00 | 0.00 | 0.00 | 58 | 1008.7 |
| 20260509040032 | 63 | 159 | 5.0 | 7.0 | 0.00 | 0.00 | 0.00 | 56 | 1008.6 |
| 20260509034529 | 63 | 165 | 4.0 | 6.0 | 0.00 | 0.00 | 0.00 | 69 | 1008.7 |
| 20260509033031 | 63 | 156 | 3.0 | 6.0 | 0.00 | 0.00 | 0.00 | 68 | 1008.9 |
| 20260509031533 | 64 | 98 | 6.0 | 10.0 | 0.00 | 0.00 | 0.00 | 53 | 1008.9 |
| 20260509030032 | 63 | 105 | 5.0 | 7.0 | 0.00 | 0.00 | 0.00 | 56 | 1009.0 |
| 20260509024529 | 63 | 164 | 3.0 | 6.0 | 0.00 | 0.00 | 0.00 | 69 | 1009.1 |
| 20260509023029 | 64 | 106 | 5.0 | 8.0 | 0.00 | 0.00 | 0.00 | 55 | 1009.1 |
| 20260509021530 | 64 | 175 | 4.0 | 5.0 | 0.00 | 0.00 | 0.00 | 55 | 1009.2 |
| 20260509020033 | 64 | 158 | 2.0 | 5.0 | 0.00 | 0.00 | 0.00 | 55 | 1009.1 |
| 20260509014530 | 65 | 164 | 0.0 | 2.0 | 0.00 | 0.00 | 0.00 | 55 | 1009.1 |
| 20260509013036 | 66 | 110 | 2.0 | 6.0 | 0.00 | 0.00 | 0.00 | 51 | 1009.0 |
| 20260509011534 | 67 | 170 | 4.0 | 7.0 | 0.00 | 0.00 | 0.00 | 60 | 1009.0 |
| 20260509010042 | 67 | 101 | 7.0 | 11.0 | 0.00 | 0.00 | 0.00 | 47 | 1008.9 |
| 20260509004529 | 67 | 128 | 3.0 | 7.0 | 0.00 | 0.00 | 0.00 | 50 | 1009.0 |
| 20260509003028 | 68 | 133 | 3.0 | 8.0 | 0.00 | 0.00 | 0.00 | 60 | 1009.3 |
| 20260509001531 | 69 | 163 | 4.0 | 8.0 | 0.00 | 0.00 | 0.00 | 46 | 1009.4 |
| 20260509000030 | 69 | 119 | 6.0 | 10.0 | 0.00 | 0.00 | 0.00 | 46 | 1009.4 |
| 20260508234528 | 70 | 110 | 5.0 | 10.0 | 0.00 | 0.00 | 0.00 | 45 | 1009.6 |
| 20260508233029 | 70 | 112 | 6.0 | 14.0 | 0.00 | 0.00 | 0.00 | 43 | 1009.6 |
| 20260508231532 | 72 | 133 | 9.0 | 17.0 | 0.00 | 0.00 | 0.00 | 40 | 1009.7 |
| 20260508230037 | 72 | 131 | 12.0 | 17.0 | 0.00 | 0.00 | 0.00 | 50 | 1009.8 |
| 20260508224537 | 73 | 160 | 9.0 | 18.0 | 0.00 | 0.00 | 0.00 | 52 | 1009.8 |
| 20260508223036 | 72 | 152 | 13.0 | 20.0 | 0.00 | 0.00 | 0.00 | 50 | 1009.6 |
| 20260508221541 | 72 | 147 | 10.0 | 18.0 | 0.00 | 0.00 | 0.00 | 52 | 1009.5 |
| 20260508220030 | 73 | 124 | 11.0 | 19.0 | 0.00 | 0.00 | 0.00 | 40 | 1009.3 |
| 20260508214530 | 72 | 171 | 11.0 | 21.0 | 0.00 | 0.00 | 0.00 | 50 | 1009.4 |
| 20260508213031 | 72 | 140 | 12.0 | 23.0 | 0.00 | 0.00 | 0.00 | 51 | 1009.4 |
| 20260508211529 | 73 | 145 | 10.0 | 22.0 | 0.00 | 0.00 | 0.00 | 51 | 1009.6 |
| 20260508210030 | 72 | 118 | 13.0 | 21.0 | 0.00 | 0.00 | 0.00 | 50 | 1010.0 |
| 20260508204530 | 72 | 153 | 13.0 | 20.0 | 0.00 | 0.00 | 0.00 | 49 | 1010.2 |
| 20260508203032 | 72 | 116 | 9.0 | 23.0 | 0.00 | 0.00 | 0.00 | 51 | 1010.4 |
| 20260508201532 | 72 | 169 | 13.0 | 22.0 | 0.00 | 0.00 | 0.00 | 49 | 1010.7 |